Tiempo atmosférico en la estación meteorológica de A Lama, Pontevedra (395 m.)



Fecha
DESCASC
Temp. máxima en grados centígrados (hora)
DESCASC
Temp. mínima en grados centígrados (hora)
DESCASC
Temp. media en grados centígrados
DESCASC
Racha de viento máxima en m/sg (hora)
DESCASC
Velocidad máxima media en intervalos de 10 minutos(hora)
DESCASC
Precipitaciones diarias en mm
DESCASC
Precipitaciones de 00:00 a 06:00 en mm
DESCASC
Precipitaciones de 06:00 a 12:00 en mm
DESCASC
Precipitaciones de 12:00 a 18:00 en mm
DESCASC
Precipitaciones de 18:00 a 24:00 en mm
DESCASC
07-08-2020 29.9 (17:10) 13.6 (08:00) 21.8 6.94 (18:30) 4.72 (18:20) 0 0 0 0 0
06-08-2020 33.4 (15:30) 14.3 (05:40) 23.9 6.67 (17:20) 3.61 (18:20) 0 0 0 0 0
05-08-2020 31.1 (16:50) 12 (07:40) 21.6 7.22 (16:20) 4.72 (17:30) 0 0 0 0 0
04-08-2020 31.2 (17:10) 14.8 (07:50) 23 9.17 (18:10) 5.83 (17:40) 0 0 0 0 0
03-08-2020 24.8 (17:50) 10.7 (07:20) 17.7 7.5 (16:20) 4.44 (17:10) 0 0 0 0 0
02-08-2020 26.7 (17:30) 15.2 (07:10) 21 12.22 (05:10) 6.94 (05:10) 0 0 0 0 0
01-08-2020 27.2 (17:20) 14.1 (00:00) 20.7 9.72 (19:10) 5.28 (18:50) 0 0 0 0 0
31-07-2020 27.7 (15:10) 12.1 (06:50) 19.9 7.78 (17:20) 4.72 (17:00) 0 0 0 0 0
30-07-2020 30.4 (14:50) 15.2 (00:00) 22.8 7.78 (14:30) 4.72 (17:10) 0 0 0 0 0
29-07-2020 33.6 (17:00) 16.4 (00:00) 25 15.83 (05:20) 8.33 (05:50) 0 0 0 0 0
28-07-2020 28.6 (17:50) 15.8 (03:30) 22.2 10.28 (22:00) 5 (23:59) 0 0 0 0 0
27-07-2020 27.3 (14:50) 11.6 (00:00) 19.4 7.78 (13:50) 4.44 (18:00) 0 0 0 0 0
26-07-2020 28.9 (18:00) 15.1 (00:00) 22 6.67 (17:30) 4.44 (17:00) 0 0 0 0 0
25-07-2020 26.5 (14:20) 11.8 (07:30) 19.2 7.78 (15:00) 5 (14:50) 0 0 0 0 0
24-07-2020 27.9 (17:10) 13.1 (00:00) 20.5 9.72 (17:40) 6.39 (16:00) 0 0 0 0 0
23-07-2020 31 (17:30) 14.4 (00:00) 22.7 7.5 (18:10) 4.72 (17:00) 0 0 0 0 0
22-07-2020 32.8 (15:20) 18.7 (06:40) 25.8 9.17 (05:10) 4.44 (17:10) 0.2 0 0.2 0 0
21-07-2020 34.9 (17:50) 16.8 (00:00) 25.9 16.39 (05:20) 8.61 (06:40) 0 0 0 0 0
20-07-2020 31.6 (16:50) 15.6 (04:50) 23.6 12.5 (07:30) 7.5 (07:30) 0 0 0 0 0
19-07-2020 28.2 (16:20) 11.8 (00:00) 20 6.67 (14:30) 3.89 (14:10) 0 0 0 0 0
18-07-2020 35.3 (16:20) 18.9 (00:00) 27.1 11.39 (07:10) 6.94 (07:10) 0 0 0 0 0
17-07-2020 35.3 (18:50) 21.7 (00:00) 28.5 13.61 (06:00) 8.33 (05:00) 0 0 0 0 0
16-07-2020 32.4 (17:50) 18 (00:00) 25.2 14.17 (05:20) 8.61 (04:50) 0 0 0 0 0
15-07-2020 29.4 (16:50) 15.8 (01:50) 22.6 18.61 (02:40) 10.83 (05:10) 0 0 0 0 0
14-07-2020 -- (--) -- (--) -- 14.17 (04:50) 8.33 (00:30) -- 0 -- 0 0
13-07-2020 30.8 (15:50) 18.1 (07:00) 24.4 14.44 (09:50) 8.89 (08:10) 0 0 0 0 0

Gráficas

Temp. máximas Temp. mínimas Temp. medias Precipitaciones Rachas de viento máximas Velocidades máximas media en intervalos de 10 minutos

Datos horarios

Fecha y hora oficial Temperatura (ºC) Velocidad del viento (km/h) Dirección del viento Racha (km/h) Dirección de racha Precipitación (mm) Presión (hPa) Tendencia (hPa) Humedad (%)
2020-08-11 23:00:00 20.8 3 Norte 24 Este 0 -- -- 71
2020-08-11 22:00:00 21.5 8 Este 22 Este 0 -- -- 69
2020-08-11 21:00:00 21.2 12 Este 27 Este 0 -- -- 79
2020-08-11 20:00:00 21.9 7 Este 23 Noroeste 0 -- -- 80
2020-08-11 19:00:00 23.6 11 Noroeste 20 Noroeste 0 -- -- 71
2020-08-11 18:00:00 25.2 13 Noroeste 22 Noroeste 0 -- -- 66
2020-08-11 17:00:00 26 13 Noroeste 23 Oeste 0 -- -- 63
2020-08-11 16:00:00 26.7 13 Noroeste 19 Noroeste 0 -- -- 60
2020-08-11 15:00:00 26.1 10 Sudoeste 21 Sudoeste 0 -- -- 63
2020-08-11 14:00:00 26.5 10 Sudoeste 22 Sudoeste 0 -- -- 61
2020-08-11 13:00:00 25.2 9 Sudoeste 20 Sudoeste 0 -- -- 63
2020-08-11 12:00:00 24.1 3 Norte 22 Este 0 -- -- 65
2020-08-11 11:00:00 21.5 8 Este 21 Este 0 -- -- 71
2020-08-11 10:00:00 20.9 11 Este 23 Este 0 -- -- 73
2020-08-11 09:00:00 19.2 10 Este 23 Este 0 -- -- 78
2020-08-11 08:00:00 17.7 8 Este 24 Este 0 -- -- 83
2020-08-11 07:00:00 17.8 12 Este 29 Nordeste 0 -- -- 84
2020-08-11 06:00:00 17.9 14 Este 30 Este 0 -- -- 84
2020-08-11 05:00:00 17.9 17 Este 28 Este 0 -- -- 83
2020-08-11 04:00:00 18.1 17 Este 33 Este 0 -- -- 82
2020-08-11 03:00:00 18.5 20 Este 36 Este 0 -- -- 80
2020-08-11 02:00:00 18.4 14 Este 29 Este 0 -- -- 80
2020-08-11 01:00:00 18.2 13 Este 38 Este 0 -- -- 81
2020-08-11 00:00:00 18.8 17 Este 30 Este 0 -- -- 79
2020-08-10 23:00:00 19.6 15 Este 28 Nordeste 0 -- -- 76
2020-08-10 22:00:00 20.2 7 Nordeste 21 Nordeste 0 -- -- 77
2020-08-10 21:00:00 21.4 8 Nordeste 23 Noroeste 0 -- -- 72
2020-08-10 20:00:00 23.8 8 Nordeste 25 Noroeste 0 -- -- 65
2020-08-10 19:00:00 24.4 13 Norte 26 Norte 0 -- -- 63
2020-08-10 18:00:00 27.4 9 Norte 31 Noroeste 0 -- -- 54
2020-08-10 17:00:00 28.3 12 Noroeste 31 Noroeste 0 -- -- 52
2020-08-10 16:00:00 28.7 9 Sudoeste 20 Sudoeste 0 -- -- 50
2020-08-10 15:00:00 27.6 9 Sudoeste 23 Sudoeste 0 -- -- 53
2020-08-10 14:00:00 26.1 5 Noroeste 21 Noroeste 0 -- -- 54
2020-08-10 13:00:00 23.9 8 Este 22 Este 0 -- -- 59
2020-08-10 12:00:00 21.4 13 Este 27 Sudeste 0 -- -- 69
2020-08-10 11:00:00 19.6 16 Este 29 Este 0 -- -- 75
2020-08-10 10:00:00 18.4 15 Este 28 Este 0 -- -- 80
2020-08-10 09:00:00 15.8 3 Nordeste 10 Norte 0 -- -- 95
2020-08-10 08:00:00 13.1 5 Norte 11 Noroeste 0 -- -- 95
2020-08-10 07:00:00 13.4 5 Norte 17 Este 0 -- -- 92
2020-08-10 06:00:00 14.4 7 Nordeste 18 Este 0 -- -- 94
2020-08-10 05:00:00 13.6 5 Nordeste 12 Este 0 -- -- 96
2020-08-10 04:00:00 13.5 0 Calma 10 Nordeste 0 -- -- 94
2020-08-10 03:00:00 14.2 4 Nordeste 11 Nordeste 0 -- -- 93
2020-08-10 02:00:00 15.2 5 Norte 9 Norte 0 -- -- 93
2020-08-10 01:00:00 15.9 3 Norte 6 Norte 0 -- -- 91
2020-08-10 00:00:00 17.3 2 Norte 9 Nordeste 0 -- -- 87
2020-08-09 23:00:00 17.7 3 Nordeste 8 Este 0 -- -- 89
2020-08-09 22:00:00 19 2 Sudeste 7 Oeste 0 -- -- 82
2020-08-09 21:00:00 21.9 3 Sudeste 12 Norte 0 -- -- 72
2020-08-09 20:00:00 23.4 8 Noroeste 16 Sudoeste 0 -- -- 68
2020-08-09 19:00:00 25.1 9 Oeste 22 Sudoeste 0 -- -- 64
2020-08-09 18:00:00 25.5 8 Oeste 20 Sudoeste 0 -- -- 63
2020-08-09 17:00:00 26 8 Oeste 23 Sudoeste 0 -- -- 63
2020-08-09 16:00:00 26.2 11 Sudoeste 21 Sudoeste 0 -- -- 63
2020-08-09 15:00:00 26.1 9 Sudoeste 21 Sudoeste 0 -- -- 63
2020-08-09 14:00:00 24.3 9 Sudoeste 19 Sur 0 -- -- 67
2020-08-09 13:00:00 23.8 8 Sudoeste 15 Sudoeste 0 -- -- 70
2020-08-09 12:00:00 21.7 10 Sudoeste 15 Sudoeste 0 -- -- 76
2020-08-09 11:00:00 21.7 6 Sudoeste 10 Sudoeste 0 -- -- 77
2020-08-09 10:00:00 19.4 3 Sudeste 5 Noroeste 0 -- -- 87
2020-08-09 09:00:00 15.6 2 Noroeste 5 Noroeste 0 -- -- 95
2020-08-09 08:00:00 14 0 Calma 5 Noroeste 0 -- -- 94
2020-08-09 07:00:00 14.7 0 Calma 3 Noroeste 0 -- -- 93
2020-08-09 06:00:00 14.9 0 Calma 6 Norte 0 -- -- 93
2020-08-09 05:00:00 15.1 2 Noroeste 8 Este 0 -- -- 93
2020-08-09 04:00:00 15.1 3 Noroeste 7 Noroeste 0 -- -- 92
2020-08-09 03:00:00 15.7 5 Noroeste 8 Noroeste 0 -- -- 92
2020-08-09 02:00:00 16.3 2 Noroeste 6 Noroeste 0 -- -- 91
2020-08-09 01:00:00 17.1 0 Calma 5 Noroeste 0 -- -- 89
2020-08-09 00:00:00 18.1 3 Noroeste 5 Noroeste 0 -- -- 86
2020-08-08 23:00:00 19.5 3 Noroeste 5 Nordeste 0 -- -- 81
2020-08-08 22:00:00 22.7 0 Calma 8 Noroeste 0 -- -- 68
2020-08-08 21:00:00 25.3 6 Noroeste 14 Oeste 0 -- -- 60
2020-08-08 20:00:00 27.6 8 Sudoeste 16 Sudoeste 0 -- -- 54
2020-08-08 19:00:00 29.6 9 Sudoeste 19 Sudoeste 0 -- -- 50
2020-08-08 18:00:00 30.5 9 Sudoeste 19 Sudoeste 0 -- -- 48
2020-08-08 17:00:00 30.2 8 Noroeste 20 Sudoeste 0 -- -- 48
2020-08-08 16:00:00 30 9 Noroeste 19 Oeste 0 -- -- 48
2020-08-08 15:00:00 30.2 10 Sudoeste 21 Sudoeste 0 -- -- 47
2020-08-08 14:00:00 29.1 8 Sudoeste 24 Sudoeste 0 -- -- 50
2020-08-08 13:00:00 27.7 11 Sudoeste 18 Sudoeste 0 -- -- 52
2020-08-08 12:00:00 25.6 3 Sur 9 Oeste 0 -- -- 55
2020-08-08 11:00:00 23.2 7 Sudoeste 13 Sudoeste 0 -- -- 62
2020-08-08 10:00:00 20.9 3 Noroeste 6 Noroeste 0 -- -- 72
2020-08-08 09:00:00 16.6 4 Norte 8 Nordeste 0 -- -- 82
2020-08-08 08:00:00 13.7 3 Noroeste 6 Noroeste 0 -- -- 88
2020-08-08 07:00:00 14.1 0 Calma 6 Noroeste 0 -- -- 87
2020-08-08 06:00:00 15.2 3 Este 9 Noroeste 0 -- -- 81
2020-08-08 05:00:00 15.2 7 Noroeste 13 Norte 0 -- -- 83
2020-08-08 04:00:00 16.3 5 Norte 19 Este 0 -- -- 80
2020-08-08 03:00:00 17.7 4 Norte 24 Este 0 -- -- 75
2020-08-08 02:00:00 20.8 12 Nordeste 22 Este 0 -- -- 65
2020-08-08 01:00:00 20.7 10 Nordeste 24 Este 0 -- -- 69
2020-08-08 00:00:00 20.9 8 Nordeste 25 Este 0 -- -- 71
2020-08-07 23:00:00 21.2 7 Norte 15 Nordeste 0 -- -- 68
2020-08-07 22:00:00 23.1 5 Nordeste 17 Nordeste 0 -- -- 61
2020-08-07 21:00:00 25.8 5 Oeste 16 Noroeste 0 -- -- 60
2020-08-07 20:00:00 27.7 10 Noroeste 22 Noroeste 0 -- -- 54
2020-08-07 19:00:00 29.1 13 Noroeste 25 Noroeste 0 -- -- 50
2020-08-07 18:00:00 29.9 15 Noroeste 22 Noroeste 0 -- -- 48
2020-08-07 17:00:00 29.8 14 Noroeste 23 Noroeste 0 -- -- 48
2020-08-07 16:00:00 29.5 12 Noroeste 21 Noroeste 0 -- -- 50
2020-08-07 15:00:00 28.5 11 Noroeste 19 Oeste 0 -- -- 54
2020-08-07 14:00:00 27.6 10 Oeste 19 Sudoeste 0 -- -- 60
2020-08-07 13:00:00 25.9 10 Sudoeste 19 Sudoeste 0 -- -- 66
2020-08-07 12:00:00 24.5 7 Sudoeste 17 Sudoeste 0 -- -- 70
2020-08-07 11:00:00 23.3 8 Sudoeste 12 Sudoeste 0 -- -- 69
2020-08-07 10:00:00 20.6 3 Noroeste 6 Noroeste 0 -- -- 75
2020-08-07 09:00:00 15.7 2 Noroeste 9 Noroeste 0 -- -- 89
2020-08-07 08:00:00 13.6 2 Noroeste 7 Noroeste 0 -- -- 90
2020-08-07 07:00:00 14.1 3 Nordeste 8 Noroeste 0 -- -- 89
2020-08-07 06:00:00 14.2 3 Noroeste 9 Noroeste 0 -- -- 88
2020-08-07 05:00:00 15.2 0 Calma 12 Oeste 0 -- -- 86
2020-08-07 04:00:00 15.3 2 Sur 8 Noroeste 0 -- -- 89
2020-08-07 03:00:00 15.5 4 Noroeste 8 Noroeste 0 -- -- 88
2020-08-07 02:00:00 16.5 3 Noroeste 4 Noroeste 0 -- -- 86
2020-08-07 01:00:00 17.7 2 Este 7 Este 0 -- -- 84
2020-08-07 00:00:00 18.9 0 Calma 5 Noroeste 0 -- -- 79
2020-08-06 23:00:00 20.8 0 Calma 4 Nordeste 0 -- -- 73
2020-08-06 22:00:00 23.4 0 Calma 15 Sudoeste 0 -- -- 62
2020-08-06 21:00:00 27.8 8 Sudoeste 13 Sudoeste 0 -- -- 46
2020-08-06 20:00:00 29.4 10 Noroeste 16 Noroeste 0 -- -- 44
2020-08-06 19:00:00 30.5 12 Noroeste 18 Noroeste 0 -- -- 41
2020-08-06 18:00:00 31.2 12 Noroeste 24 Noroeste 0 -- -- 40
2020-08-06 17:00:00 32.3 13 Oeste 23 Oeste 0 -- -- 38
2020-08-06 16:00:00 33.3 11 Sudoeste 21 Sudoeste 0 -- -- 37
2020-08-06 15:00:00 32.9 10 Sudoeste 22 Sudoeste 0 -- -- 34
2020-08-06 14:00:00 31.2 9 Sudoeste 18 Sudoeste 0 -- -- 44
2020-08-06 13:00:00 29.9 8 Sudoeste 15 Sudoeste 0 -- -- 47
2020-08-06 12:00:00 29.2 7 Sudoeste 11 Sudoeste 0 -- -- 49
2020-08-06 11:00:00 27.2 6 Sudoeste 9 Sudoeste 0.2 -- -- 55
2020-08-06 10:00:00 23.7 0 Calma 4 Noroeste 0 -- -- 67
2020-08-06 09:00:00 17.8 0 Calma 6 Noroeste 0 -- -- 83
2020-08-06 08:00:00 14.5 5 Noroeste 6 Noroeste 0 -- -- 88
2020-08-06 07:00:00 15.3 0 Calma 12 Este 0 -- -- 87
2020-08-06 06:00:00 14.6 4 Norte 10 Nordeste 0 -- -- 88
2020-08-06 05:00:00 15.1 4 Norte 8 Noroeste 0 -- -- 86
2020-08-06 04:00:00 16 6 Noroeste 9 Noroeste 0 -- -- 82
2020-08-06 03:00:00 16.6 4 Noroeste 12 Norte 0 -- -- 80
2020-08-06 02:00:00 17.6 6 Noroeste 13 Nordeste 0 -- -- 76
2020-08-06 01:00:00 17.8 6 Norte 16 Nordeste 0 -- -- 76
2020-08-06 00:00:00 19.9 6 Norte 15 Norte 0 -- -- 67
2020-08-05 23:00:00 22.4 6 Norte 12 Este 0 -- -- 59
2020-08-05 22:00:00 23.8 4 Nordeste 16 Noroeste 0 -- -- 61
2020-08-05 21:00:00 27.3 9 Noroeste 16 Noroeste 0 -- -- 52
2020-08-05 20:00:00 28.2 9 Noroeste 21 Noroeste 0 -- -- 50
2020-08-05 19:00:00 29.5 10 Noroeste 22 Noroeste 0 -- -- 47
2020-08-05 18:00:00 30.5 15 Noroeste 24 Oeste 0 -- -- 43
2020-08-05 17:00:00 30.9 16 Noroeste 26 Noroeste 0 -- -- 39
2020-08-05 16:00:00 30.7 16 Noroeste 23 Noroeste 0 -- -- 39
2020-08-05 15:00:00 30.1 11 Noroeste 21 Noroeste 0 -- -- 40
2020-08-05 14:00:00 29.9 6 Noroeste 20 Sudoeste 0 -- -- 39
2020-08-05 13:00:00 28.7 11 Sudoeste 18 Sudoeste 0 -- -- 41
2020-08-05 12:00:00 27.3 9 Sudoeste 13 Sudoeste 0 -- -- 42
2020-08-05 11:00:00 24.8 5 Sudeste 8 Sudeste 0 -- -- 51
2020-08-05 10:00:00 20.4 3 Norte 6 Noroeste 0 -- -- 60
2020-08-05 09:00:00 14.6 3 Norte 9 Noroeste 0 -- -- 78
2020-08-05 08:00:00 12 5 Noroeste 10 Noroeste 0 -- -- 87
2020-08-05 07:00:00 13.1 4 Norte 12 Nordeste 0 -- -- 83
2020-08-05 06:00:00 12.8 4 Norte 13 Nordeste 0 -- -- 89
2020-08-05 05:00:00 13.2 5 Noroeste 10 Noroeste 0 -- -- 90
2020-08-05 04:00:00 14.8 5 Norte 9 Noroeste 0 -- -- 86
2020-08-05 03:00:00 16.1 5 Norte 10 Nordeste 0 -- -- 84
2020-08-05 02:00:00 17 6 Nordeste 16 Norte 0 -- -- 85
2020-08-05 01:00:00 18.5 8 Norte 15 Norte 0 -- -- 81
2020-08-05 00:00:00 19.8 9 Norte 15 Norte 0 -- -- 78
2020-08-04 23:00:00 21.3 6 Norte 15 Nordeste 0 -- -- 72
2020-08-04 22:00:00 23.4 6 Norte 16 Noroeste 0 -- -- 66
2020-08-04 21:00:00 26.2 12 Noroeste 24 Norte 0 -- -- 58
2020-08-04 20:00:00 29.4 9 Norte 28 Noroeste 0 -- -- 43
2020-08-04 19:00:00 29.7 18 Noroeste 33 Norte 0 -- -- 36
2020-08-04 18:00:00 30.4 17 Noroeste 31 Noroeste 0 -- -- 32
2020-08-04 17:00:00 31.1 15 Noroeste 28 Noroeste 0 -- -- 26
2020-08-04 16:00:00 29.8 16 Noroeste 25 Noroeste 0 -- -- 38
2020-08-04 15:00:00 29.1 7 Noroeste 14 Este 0 -- -- 37
2020-08-04 14:00:00 27.6 4 Norte 18 Nordeste 0 -- -- 40
2020-08-04 13:00:00 25.6 9 Este 21 Este 0 -- -- 40
2020-08-04 12:00:00 23.4 11 Este 23 Sudeste 0 -- -- 53
2020-08-04 11:00:00 21.5 9 Este 26 Este 0 -- -- 63
2020-08-04 10:00:00 19.3 15 Este 29 Este 0 -- -- 69
2020-08-04 09:00:00 17.6 11 Este 23 Este 0 -- -- 77
2020-08-04 08:00:00 15.2 7 Nordeste 18 Este 0 -- -- 85
2020-08-04 07:00:00 15.8 5 Nordeste 22 Este 0 -- -- 82
2020-08-04 06:00:00 15.9 4 Nordeste 24 Nordeste 0 -- -- 83
2020-08-04 05:00:00 16.3 11 Nordeste 32 Este 0 -- -- 81
2020-08-04 04:00:00 16 6 Este 26 Nordeste 0 -- -- 86
2020-08-04 03:00:00 16.2 12 Nordeste 26 Este 0 -- -- 86
2020-08-04 02:00:00 15.3 4 Norte 11 Nordeste 0 -- -- 87
2020-08-04 01:00:00 16 3 Nordeste 9 Nordeste 0 -- -- 84
2020-08-04 00:00:00 17 5 Nordeste 17 Noroeste 0 -- -- 81
2020-08-03 23:00:00 18.1 5 Norte 13 Nordeste 0 -- -- 79
2020-08-03 22:00:00 19.7 3 Nordeste 19 Noroeste 0 -- -- 75
2020-08-03 21:00:00 22 9 Noroeste 22 Noroeste 0 -- -- 69
2020-08-03 20:00:00 23.2 14 Noroeste 24 Noroeste 0 -- -- 67
2020-08-03 19:00:00 23.2 14 Noroeste 25 Noroeste 0 -- -- 67
2020-08-03 18:00:00 24.4 14 Noroeste 25 Norte 0 -- -- 62
2020-08-03 17:00:00 24.4 14 Noroeste 27 Noroeste 0 -- -- 58
2020-08-03 16:00:00 24.1 14 Noroeste 25 Noroeste 0 -- -- 60
2020-08-03 15:00:00 23.3 13 Noroeste 22 Noroeste 0 -- -- 60
2020-08-03 14:00:00 21.7 9 Norte 19 Noroeste 0 -- -- 66
2020-08-03 13:00:00 20.4 4 Noroeste 15 Noroeste 0 -- -- 70
2020-08-03 12:00:00 20.8 4 Sur 13 Sudoeste 0 -- -- 61
2020-08-03 11:00:00 18.8 3 Sudoeste 7 Sudoeste 0 -- -- 58
2020-08-03 10:00:00 16.5 0 Calma 6 Noroeste 0 -- -- 68
2020-08-03 09:00:00 13.3 2 Norte 8 Noroeste 0 -- -- 82
2020-08-03 08:00:00 11.1 3 Noroeste 8 Noroeste 0 -- -- 87
2020-08-03 07:00:00 11 4 Norte 11 Nordeste 0 -- -- 87
2020-08-03 06:00:00 11.6 3 Nordeste 12 Este 0 -- -- 90
2020-08-03 05:00:00 12 4 Noroeste 6 Nordeste 0 -- -- 92
2020-08-03 04:00:00 13.1 3 Este 8 Noroeste 0 -- -- 90
2020-08-03 03:00:00 14 6 Norte 12 Norte 0 -- -- 88
2020-08-03 02:00:00 15.1 5 Norte 17 Este 0 -- -- 85
2020-08-03 01:00:00 16.1 8 Este 17 Noroeste 0 -- -- 83
2020-08-03 00:00:00 16 4 Norte 17 Este 0 -- -- 81
2020-08-02 23:00:00 17.3 4 Nordeste 18 Nordeste 0 -- -- 76
2020-08-02 22:00:00 18.5 8 Norte 21 Noroeste 0 -- -- 73
2020-08-02 21:00:00 20.4 7 Norte 29 Noroeste 0 -- -- 68
2020-08-02 20:00:00 23 8 Norte 28 Norte 0 -- -- 56
2020-08-02 19:00:00 25.1 17 Noroeste 31 Noroeste 0 -- -- 51
2020-08-02 18:00:00 26.4 17 Noroeste 27 Norte 0 -- -- 44
2020-08-02 17:00:00 26.4 14 Noroeste 28 Noroeste 0 -- -- 43
2020-08-02 16:00:00 26.4 11 Noroeste 21 Norte 0 -- -- 44
2020-08-02 15:00:00 25.8 9 Noroeste 25 Noroeste 0 -- -- 47
2020-08-02 14:00:00 25.1 9 Norte 23 Noroeste 0 -- -- 47
2020-08-02 13:00:00 23.5 8 Este 24 Este 0 -- -- 50
2020-08-02 12:00:00 21.9 10 Este 28 Este 0 -- -- 58
2020-08-02 11:00:00 20.4 10 Nordeste 32 Este 0 -- -- 61
2020-08-02 10:00:00 18.6 14 Este 35 Este 0 -- -- 68
2020-08-02 09:00:00 17.2 16 Este 30 Este 0 -- -- 72
2020-08-02 08:00:00 15.4 10 Nordeste 32 Nordeste 0 -- -- 79
2020-08-02 07:00:00 15.3 11 Nordeste 37 Nordeste 0 -- -- 80
2020-08-02 06:00:00 15.6 21 Este 44 Sudeste 0 -- -- 80
2020-08-02 05:00:00 15.5 21 Este 39 Este 0 -- -- 82
2020-08-02 04:00:00 15.6 17 Nordeste 39 Este 0 -- -- 83
2020-08-02 03:00:00 15.4 17 Este 35 Este 0 -- -- 83
2020-08-02 02:00:00 15.8 18 Este 33 Este 0 -- -- 81
2020-08-02 01:00:00 16.4 14 Este 30 Este 0 -- -- 79
2020-08-02 00:00:00 17 7 Nordeste 20 Nordeste 0 -- -- 80
2020-08-01 23:00:00 17.8 6 Nordeste 27 Este 0 -- -- 78
2020-08-01 22:00:00 18.8 6 Nordeste 30 Noroeste 0 -- -- 74
2020-08-01 21:00:00 21.6 10 Norte 26 Norte 0 -- -- 64
2020-08-01 20:00:00 24.2 13 Noroeste 35 Noroeste 0 -- -- 57
2020-08-01 19:00:00 25.7 17 Noroeste 34 Norte 0 -- -- 50
2020-08-01 18:00:00 26.9 10 Norte 26 Noroeste 0 -- -- 46
2020-08-01 17:00:00 27 11 Noroeste 30 Noroeste 0 -- -- 48
2020-08-01 16:00:00 26.4 13 Noroeste 28 Noroeste 0 -- -- 51
2020-08-01 15:00:00 25.8 7 Noroeste 21 Noroeste 0 -- -- 53
2020-08-01 14:00:00 24.2 7 Noroeste 21 Oeste 0 -- -- 60
2020-08-01 13:00:00 22.9 6 Noroeste 23 Sudoeste 0 -- -- 67
2020-08-01 12:00:00 22.2 6 Oeste 14 Sudoeste 0 -- -- 71
2020-08-01 11:00:00 20.6 2 Oeste 9 Sur 0 -- -- 80
2020-08-01 10:00:00 18.2 5 Sur 10 Sudoeste 0 -- -- 91
2020-08-01 09:00:00 15.2 0 Calma 4 Este 0 -- -- 96
2020-08-01 08:00:00 14.2 0 Calma 5 Noroeste 0 -- -- 95
2020-08-01 07:00:00 14.6 3 Norte 6 Norte 0 -- -- 95
2020-08-01 06:00:00 15.3 3 Norte 5 Nordeste 0 -- -- 95
2020-08-01 05:00:00 14.7 0 Calma 5 Noroeste 0 -- -- 94
2020-08-01 04:00:00 15.1 2 Sudeste 9 Norte 0 -- -- 92
2020-08-01 03:00:00 15.8 0 Calma 13 Nordeste 0 -- -- 91
2020-08-01 02:00:00 15.6 3 Norte 6 Nordeste 0 -- -- 91
2020-08-01 01:00:00 16.2 2 Nordeste 6 Noroeste 0 -- -- 88
2020-08-01 00:00:00 16.8 4 Norte 8 Nordeste 0 -- -- 87
2020-07-31 23:00:00 18.2 3 Norte 9 Noroeste 0 -- -- 86
2020-07-31 22:00:00 19.9 4 Noroeste 12 Noroeste 0 -- -- 77
2020-07-31 21:00:00 21.9 7 Noroeste 14 Noroeste 0 -- -- 65
2020-07-31 20:00:00 23.5 8 Oeste 22 Noroeste 0 -- -- 59
2020-07-31 19:00:00 23.5 10 Noroeste 21 Norte 0 -- -- 56
2020-07-31 18:00:00 25 15 Noroeste 28 Noroeste 0 -- -- 53
2020-07-31 17:00:00 26.4 17 Noroeste 23 Noroeste 0 -- -- 45
2020-07-31 16:00:00 27.2 13 Noroeste 24 Noroeste 0 -- -- 41
2020-07-31 15:00:00 27.6 9 Sudoeste 20 Sudoeste 0 -- -- 35
2020-07-31 14:00:00 25.8 9 Oeste 19 Sudoeste 0 -- -- 47
2020-07-31 13:00:00 23.8 8 Sudoeste 17 Sudoeste 0 -- -- 60
2020-07-31 12:00:00 19.6 2 Sudoeste 12 Sudeste 0 -- -- 86
2020-07-31 11:00:00 17.2 4 Noroeste 7 Noroeste 0 -- -- 98
2020-07-31 10:00:00 14.9 3 Sudeste 6 Nordeste 0 -- -- 99
2020-07-31 09:00:00 13.3 3 Norte 9 Nordeste 0 -- -- 99
2020-07-31 08:00:00 12.4 5 Nordeste 9 Nordeste 0 -- -- 98
2020-07-31 07:00:00 12.2 0 Calma 9 Nordeste 0 -- -- 98
2020-07-31 06:00:00 13 6 Nordeste 12 Nordeste 0 -- -- 97
2020-07-31 05:00:00 13.5 2 Nordeste 10 Nordeste 0 -- -- 97
2020-07-31 04:00:00 13.6 3 Nordeste 12 Nordeste 0 -- -- 96
2020-07-31 03:00:00 13.9 6 Nordeste 10 Este 0 -- -- 95
2020-07-31 02:00:00 14.9 2 Norte 5 Este 0 -- -- 95
2020-07-31 01:00:00 16.1 2 Este 8 Este 0 -- -- 95
2020-07-31 00:00:00 16.8 2 Oeste 8 Oeste 0 -- -- 94
2020-07-30 23:00:00 17.1 0 Calma 9 Sudoeste 0 -- -- 92
2020-07-30 22:00:00 18.3 4 Sudoeste 13 Sudoeste 0 -- -- 85
2020-07-30 21:00:00 21.5 8 Sudoeste 14 Oeste 0 -- -- 74
2020-07-30 20:00:00 23.9 9 Sudoeste 21 Sudoeste 0 -- -- 66
2020-07-30 19:00:00 25.2 10 Oeste 22 Oeste 0 -- -- 62
2020-07-30 18:00:00 26.9 14 Sudoeste 24 Noroeste 0 -- -- 57
2020-07-30 17:00:00 29 13 Noroeste 22 Noroeste 0 -- -- 49
2020-07-30 16:00:00 29.3 13 Oeste 23 Oeste 0 -- -- 49
2020-07-30 15:00:00 30.1 12 Oeste 28 Oeste 0 -- -- 48
2020-07-30 14:00:00 29.8 11 Oeste 23 Noroeste 0 -- -- 49
2020-07-30 13:00:00 28.8 11 Oeste 23 Oeste 0 -- -- 54
2020-07-30 12:00:00 28.5 8 Sudoeste 14 Sudoeste 0 -- -- 56
2020-07-30 11:00:00 26.6 4 Sudoeste 11 Sudoeste 0 -- -- 64
2020-07-30 10:00:00 23.9 0 Calma 7 Noroeste 0 -- -- 74
2020-07-30 09:00:00 18.2 3 Noroeste 7 Noroeste 0 -- -- 90
2020-07-30 08:00:00 15.8 2 Oeste 7 Noroeste 0 -- -- 94
2020-07-30 07:00:00 15.6 4 Noroeste 9 Noroeste 0 -- -- 92
2020-07-30 06:00:00 16.1 6 Noroeste 8 Noroeste 0 -- -- 91
2020-07-30 05:00:00 17.2 4 Noroeste 6 Noroeste 0 -- -- 90
2020-07-30 04:00:00 17.7 0 Calma 5 Noroeste 0 -- -- 90
2020-07-30 03:00:00 18.4 3 Este 5 Noroeste 0 -- -- 89
2020-07-30 02:00:00 19.4 0 Calma 8 Norte 0 -- -- 85
2020-07-30 01:00:00 20.6 5 Norte 14 Norte 0 -- -- 83
2020-07-30 00:00:00 21.4 7 Norte 13 Norte 0 -- -- 81
2020-07-29 23:00:00 23.9 0 Calma 6 Oeste 0 -- -- 70
2020-07-29 22:00:00 27.5 2 Sudoeste 12 Oeste 0 -- -- 58
2020-07-29 21:00:00 30.7 6 Noroeste 15 Noroeste 0 -- -- 48
2020-07-29 20:00:00 32.3 11 Noroeste 19 Noroeste 0 -- -- 44
2020-07-29 19:00:00 32.8 9 Noroeste 19 Noroeste 0 -- -- 42
2020-07-29 18:00:00 33.4 7 Noroeste 20 Oeste 0 -- -- 41
2020-07-29 17:00:00 33.6 7 Noroeste 20 Sudoeste 0 -- -- 40
2020-07-29 16:00:00 32.8 6 Noroeste 22 Sudoeste 0 -- -- 41
2020-07-29 15:00:00 32.1 8 Oeste 17 Oeste 0 -- -- 43
2020-07-29 14:00:00 31.2 8 Sudoeste 17 Sudoeste 0 -- -- 42
2020-07-29 13:00:00 29.6 6 Sur 21 Este 0 -- -- 49
2020-07-29 12:00:00 26.8 13 Este 29 Este 0 -- -- 56
2020-07-29 11:00:00 23.8 17 Este 36 Este 0 -- -- 63
2020-07-29 10:00:00 20.7 21 Este 39 Este 0 -- -- 71
2020-07-29 09:00:00 19.1 21 Este 39 Este 0 -- -- 76
2020-07-29 08:00:00 17.8 20 Este 45 Este 0 -- -- 81
2020-07-29 07:00:00 16.9 23 Este 45 Este 0 -- -- 84
2020-07-29 06:00:00 16.4 28 Este 57 Este 0 -- -- 85
2020-07-29 05:00:00 16.9 27 Este 45 Este 0 -- -- 83
2020-07-29 04:00:00 17.1 25 Este 41 Este 0 -- -- 83
2020-07-29 03:00:00 18.1 19 Este 39 Nordeste 0 -- -- 79
2020-07-29 02:00:00 19 18 Este 37 Este 0 -- -- 75
2020-07-29 01:00:00 19.4 17 Este 36 Este 0 -- -- 73
2020-07-29 00:00:00 19.7 18 Este 32 Nordeste 0 -- -- 70
2020-07-28 23:00:00 20 10 Nordeste 34 Este 0 -- -- 66
2020-07-28 22:00:00 21.1 17 Este 37 Este 0 -- -- 68
2020-07-28 21:00:00 24 8 Nordeste 22 Norte 0 -- -- 61
2020-07-28 20:00:00 26.4 8 Norte 27 Norte 0 -- -- 54
2020-07-28 19:00:00 28 10 Norte 23 Noroeste 0 -- -- 50
2020-07-28 18:00:00 28.5 8 Nordeste 24 Este 0 -- -- 51
2020-07-28 17:00:00 28.2 10 Este 24 Este 0 -- -- 52
2020-07-28 16:00:00 27.5 10 Nordeste 23 Este 0 -- -- 55
2020-07-28 15:00:00 27.6 6 Nordeste 24 Noroeste 0 -- -- 56
2020-07-28 14:00:00 26.4 9 Este 23 Nordeste 0 -- -- 58
2020-07-28 13:00:00 25.2 9 Nordeste 22 Nordeste 0 -- -- 61
2020-07-28 12:00:00 23.8 9 Nordeste 22 Este 0 -- -- 67
2020-07-28 11:00:00 21.9 7 Nordeste 22 Este 0 -- -- 71
2020-07-28 10:00:00 20.3 9 Este 19 Este 0 -- -- 79
2020-07-28 09:00:00 18.7 5 Nordeste 14 Nordeste 0 -- -- 89
2020-07-28 08:00:00 18.3 4 Norte 9 Norte 0 -- -- 90
2020-07-28 07:00:00 18.3 5 Norte 13 Nordeste 0 -- -- 92
2020-07-28 06:00:00 18.1 3 Norte 10 Norte 0 -- -- 94
2020-07-28 05:00:00 16.8 0 Calma 9 Noroeste 0 -- -- 93
2020-07-28 04:00:00 16.4 4 Norte 9 Nordeste 0 -- -- 93
2020-07-28 03:00:00 16.2 5 Nordeste 11 Nordeste 0 -- -- 95
2020-07-28 02:00:00 16 2 Norte 5 Noroeste 0 -- -- 93
2020-07-28 01:00:00 16.7 2 Noroeste 5 Noroeste 0 -- -- 92
2020-07-28 00:00:00 18.2 2 Norte 4 Noroeste 0 -- -- 89
2020-07-27 23:00:00 19.5 0 Calma 9 Noroeste 0 -- -- 87
2020-07-27 22:00:00 21.2 0 Calma 10 Noroeste 0 -- -- 80
2020-07-27 21:00:00 23.2 8 Noroeste 19 Oeste 0 -- -- 72
2020-07-27 20:00:00 24.3 11 Noroeste 23 Noroeste 0 -- -- 68
2020-07-27 19:00:00 25.4 12 Noroeste 22 Noroeste 0 -- -- 64
2020-07-27 18:00:00 25.7 16 Noroeste 25 Noroeste 0 -- -- 62
2020-07-27 17:00:00 26.3 15 Noroeste 24 Noroeste 0 -- -- 60
2020-07-27 16:00:00 26.5 14 Noroeste 25 Norte 0 -- -- 59
2020-07-27 15:00:00 27 14 Noroeste 23 Noroeste 0 -- -- 56
2020-07-27 14:00:00 26.8 9 Noroeste 28 Sudoeste 0 -- -- 54
2020-07-27 13:00:00 26.2 7 Sudoeste 17 Oeste 0 -- -- 50
2020-07-27 12:00:00 24.1 8 Oeste 15 Oeste 0 -- -- 53
2020-07-27 09:00:00 15.1 2 Norte 6 Noroeste 0 -- -- 89
2020-07-27 08:00:00 11.8 4 Noroeste 7 Noroeste 0 -- -- 94
2020-07-27 07:00:00 12.4 3 Noroeste 7 Norte 0 -- -- 93
2020-07-27 06:00:00 13.1 3 Noroeste 7 Noroeste 0 -- -- 92
2020-07-27 05:00:00 13.6 3 Noroeste 10 Nordeste 0 -- -- 91
2020-07-27 04:00:00 14.1 3 Norte 6 Norte 0 -- -- 91
2020-07-27 03:00:00 14.7 0 Calma 7 Noroeste 0 -- -- 92
2020-07-27 02:00:00 15.4 2 Noroeste 6 Noroeste 0 -- -- 90
2020-07-27 01:00:00 16.2 4 Noroeste 10 Nordeste 0 -- -- 89
2020-07-27 00:00:00 17.7 3 Norte 6 Nordeste 0 -- -- 85
2020-07-26 23:00:00 19.9 0 Calma 3 Sudeste 0 -- -- 75
2020-07-26 22:00:00 22.4 0 Calma 10 Sudoeste 0 -- -- 67
2020-07-26 21:00:00 26.3 7 Sudoeste 15 Oeste 0 -- -- 55
2020-07-26 20:00:00 27.3 8 Noroeste 23 Noroeste 0 -- -- 52
2020-07-26 19:00:00 28.4 13 Noroeste 20 Noroeste 0 -- -- 49
2020-07-26 18:00:00 28.9 12 Noroeste 24 Noroeste 0 -- -- 51
2020-07-26 17:00:00 28.6 16 Noroeste 22 Noroeste 0 -- -- 52
2020-07-26 16:00:00 28.3 10 Noroeste 19 Noroeste 0 -- -- 54
2020-07-26 15:00:00 27.9 9 Noroeste 21 Oeste 0 -- -- 54
2020-07-26 14:00:00 27.7 9 Oeste 21 Oeste 0 -- -- 56
2020-07-26 13:00:00 26.2 6 Sudoeste 19 Oeste 0 -- -- 60
2020-07-26 12:00:00 24.8 6 Oeste 13 Oeste 0 -- -- 64
2020-07-26 11:00:00 22.8 8 Este 22 Sudeste 0 -- -- 71
2020-07-26 10:00:00 21.3 10 Este 18 Nordeste 0 -- -- 75
2020-07-26 09:00:00 18.7 2 Norte 6 Norte 0 -- -- 87
2020-07-26 08:00:00 15.6 3 Norte 8 Este 0 -- -- 93
2020-07-26 07:00:00 16.3 3 Norte 8 Nordeste 0 -- -- 93
2020-07-26 06:00:00 15.5 4 Nordeste 8 Nordeste 0 -- -- 95
2020-07-26 05:00:00 15.5 3 Noroeste 6 Norte 0 -- -- 92
2020-07-26 04:00:00 16 3 Norte 7 Noroeste 0 -- -- 92
2020-07-26 03:00:00 15.2 3 Norte 9 Norte 0 -- -- 93
2020-07-26 02:00:00 15.1 6 Norte 9 Norte 0 -- -- 91
2020-07-26 01:00:00 16 5 Nordeste 8 Nordeste 0 -- -- 91
2020-07-26 00:00:00 16.8 0 Calma 5 Noroeste 0 -- -- 89
2020-07-25 23:00:00 18.1 0 Calma 8 Noroeste 0 -- -- 86
2020-07-25 22:00:00 20.1 6 Noroeste 13 Noroeste 0 -- -- 77
2020-07-25 21:00:00 22.1 6 Noroeste 21 Noroeste 0 -- -- 69
2020-07-25 20:00:00 23.1 10 Noroeste 23 Noroeste 0 -- -- 63
2020-07-25 19:00:00 23.7 12 Oeste 25 Noroeste 0 -- -- 61
2020-07-25 18:00:00 25.3 13 Noroeste 27 Noroeste 0 -- -- 58
2020-07-25 17:00:00 25.9 17 Noroeste 25 Noroeste 0 -- -- 57
2020-07-25 16:00:00 26.4 16 Noroeste 27 Noroeste 0 -- -- 52
2020-07-25 15:00:00 26.5 15 Noroeste 28 Noroeste 0 -- -- 50
2020-07-25 14:00:00 26 10 Oeste 18 Oeste 0 -- -- 54
2020-07-25 13:00:00 24.3 8 Oeste 20 Oeste 0 -- -- 57
2020-07-25 12:00:00 23.2 10 Sudoeste 17 Sudoeste 0 -- -- 61
2020-07-25 11:00:00 21.8 8 Sudoeste 14 Oeste 0 -- -- 65
2020-07-25 10:00:00 20 2 Norte 5 Noroeste 0 -- -- 69
2020-07-25 09:00:00 15.8 0 Calma 9 Norte 0 -- -- 86
2020-07-25 08:00:00 12.4 3 Noroeste 8 Noroeste 0 -- -- 92
2020-07-25 07:00:00 12.6 3 Norte 9 Norte 0 -- -- 91
2020-07-25 06:00:00 13.1 5 Noroeste 13 Norte 0 -- -- 90
2020-07-25 05:00:00 14.6 6 Nordeste 13 Nordeste 0 -- -- 91
2020-07-25 04:00:00 14.9 6 Norte 18 Nordeste 0 -- -- 87
2020-07-25 03:00:00 16.5 7 Nordeste 22 Nordeste 0 -- -- 85
2020-07-25 02:00:00 16.8 6 Norte 15 Este 0 -- -- 83
2020-07-25 01:00:00 17.3 5 Norte 15 Norte 0 -- -- 81
2020-07-25 00:00:00 19.4 11 Nordeste 20 Este 0 -- -- 73
2020-07-24 23:00:00 19.9 6 Nordeste 14 Noroeste 0 -- -- 71
2020-07-24 22:00:00 21.9 6 Norte 21 Noroeste 0 -- -- 64
2020-07-24 21:00:00 25.1 5 Noroeste 25 Noroeste 0 -- -- 53
2020-07-24 20:00:00 26 18 Noroeste 28 Noroeste 0 -- -- 48
2020-07-24 19:00:00 26.9 16 Noroeste 32 Noroeste 0 -- -- 46
2020-07-24 18:00:00 27.4 20 Noroeste 35 Noroeste 0 -- -- 42
2020-07-24 17:00:00 27.7 17 Noroeste 33 Norte 0 -- -- 44
2020-07-24 16:00:00 27.5 23 Noroeste 35 Noroeste 0 -- -- 40
2020-07-24 15:00:00 27.2 21 Noroeste 35 Noroeste 0 -- -- 40
2020-07-24 14:00:00 26.5 20 Noroeste 29 Noroeste 0 -- -- 42
2020-07-24 13:00:00 26 12 Noroeste 18 Noroeste 0 -- -- 40
2020-07-24 12:00:00 24.3 8 Norte 25 Este 0 -- -- 40
2020-07-24 11:00:00 22.2 5 Noroeste 17 Este 0 -- -- 49
2020-07-24 10:00:00 20.1 7 Nordeste 30 Este 0 -- -- 54
2020-07-24 09:00:00 17.9 15 Este 31 Sudeste 0 -- -- 61
2020-07-24 08:00:00 15.7 15 Este 30 Este 0 -- -- 72
2020-07-24 07:00:00 13.3 5 Norte 12 Noroeste 0 -- -- 75
2020-07-24 06:00:00 14 8 Norte 22 Este 0 -- -- 78
2020-07-24 05:00:00 14.3 4 Norte 14 Este 0 -- -- 81
2020-07-24 04:00:00 15.1 2 Nordeste 15 Norte 0 -- -- 80
2020-07-24 03:00:00 17.2 16 Este 33 Este 0 -- -- 73
2020-07-24 02:00:00 17.1 9 Este 26 Este 0 -- -- 82
2020-07-24 01:00:00 17.2 6 Norte 19 Este 0 -- -- 81
2020-07-24 00:00:00 18.2 7 Norte 16 Nordeste 0 -- -- 75
2020-07-23 23:00:00 20.1 6 Nordeste 14 Este 0 -- -- 61
2020-07-23 22:00:00 22.4 7 Norte 20 Noroeste 0 -- -- 50
2020-07-23 21:00:00 24.9 6 Nordeste 26 Noroeste 0 -- -- 56
2020-07-23 20:00:00 27.8 7 Norte 22 Norte 0 -- -- 44
2020-07-23 19:00:00 30 8 Norte 27 Noroeste 0 -- -- 33
2020-07-23 18:00:00 30.4 17 Noroeste 27 Noroeste 0 -- -- 33
2020-07-23 17:00:00 30.3 17 Noroeste 27 Noroeste 0 -- -- 34
2020-07-23 16:00:00 30.5 12 Noroeste 24 Noroeste 0 -- -- 39
2020-07-23 15:00:00 29.4 13 Noroeste 22 Noroeste 0 -- -- 47
2020-07-23 14:00:00 29 14 Noroeste 23 Norte 0 -- -- 45
2020-07-23 13:00:00 28.6 8 Sudoeste 15 Sudoeste 0 -- -- 50
2020-07-23 12:00:00 27.3 8 Sudoeste 16 Oeste 0 -- -- 56
2020-07-23 11:00:00 25.8 7 Sudoeste 12 Sudoeste 0 -- -- 59
2020-07-23 10:00:00 23.2 2 Sudeste 5 Sudeste 0 -- -- 70
2020-07-23 09:00:00 18.4 0 Calma 6 Noroeste 0 -- -- 85
2020-07-23 08:00:00 14.8 3 Norte 9 Nordeste 0 -- -- 92
2020-07-23 07:00:00 14.8 4 Norte 7 Noroeste 0 -- -- 91
2020-07-23 06:00:00 15.3 4 Norte 11 Noroeste 0 -- -- 91
2020-07-23 05:00:00 15.4 4 Norte 10 Norte 0 -- -- 89
2020-07-23 04:00:00 16.3 4 Norte 8 Nordeste 0 -- -- 88
2020-07-23 03:00:00 17.9 4 Norte 9 Noroeste 0 -- -- 83
2020-07-23 02:00:00 18 6 Noroeste 12 Norte 0 -- -- 85
2020-07-23 01:00:00 18.6 6 Norte 13 Norte 0 -- -- 83
2020-07-23 00:00:00 20.5 5 Nordeste 12 Nordeste 0 -- -- 77
2020-07-22 23:00:00 21.8 2 Noroeste 6 Nordeste 0 -- -- 75
2020-07-22 22:00:00 25.7 0 Calma 6 Noroeste 0 -- -- 60
2020-07-22 21:00:00 28.5 4 Noroeste 15 Noroeste 0 -- -- 47
2020-07-22 20:00:00 29.4 13 Noroeste 19 Noroeste 0 -- -- 45
2020-07-22 19:00:00 30.4 12 Noroeste 25 Noroeste 0 -- -- 43
2020-07-22 18:00:00 31.1 15 Noroeste 24 Noroeste 0 -- -- 43
2020-07-22 17:00:00 31.8 15 Noroeste 23 Noroeste 0 -- -- 41
2020-07-22 16:00:00 32.1 14 Noroeste 23 Oeste 0 -- -- 37
2020-07-22 15:00:00 32.7 9 Sudoeste 21 Sudoeste 0 -- -- 38
2020-07-22 14:00:00 31.8 9 Sur 19 Sudoeste 0 -- -- 38
2020-07-22 13:00:00 30.3 9 Oeste 19 Oeste 0 -- -- 42
2020-07-22 12:00:00 29.7 6 Sudoeste 15 Sudoeste 0.2 -- -- 45
2020-07-22 11:00:00 28.6 6 Oeste 10 Sudoeste 0 -- -- 44
2020-07-22 10:00:00 24.8 6 Noroeste 9 Noroeste 0 -- -- 64
2020-07-22 09:00:00 20.6 6 Noroeste 23 Este 0 -- -- 74
2020-07-22 08:00:00 20.6 8 Nordeste 25 Este 0 -- -- 70
2020-07-22 07:00:00 19.1 6 Nordeste 16 Sudeste 0 -- -- 78
2020-07-22 06:00:00 19.9 5 Norte 33 Este 0 -- -- 75
2020-07-22 05:00:00 18.9 7 Noroeste 16 Nordeste 0 -- -- 81
2020-07-22 04:00:00 21.2 9 Este 18 Este 0 -- -- 73
2020-07-22 03:00:00 20.2 5 Norte 19 Este 0 -- -- 81
2020-07-22 02:00:00 20.9 4 Noroeste 8 Noroeste 0 -- -- 80
2020-07-22 01:00:00 21.9 4 Norte 9 Noroeste 0 -- -- 78
2020-07-22 00:00:00 23.5 3 Noroeste 10 Noroeste 0 -- -- 71
2020-07-21 23:00:00 25.5 5 Noroeste 23 Este 0 -- -- 65
2020-07-21 22:00:00 27.8 8 Este 19 Este 0 -- -- 57
2020-07-21 21:00:00 30.4 11 Este 19 Este 0 -- -- 47
2020-07-21 20:00:00 32 9 Noroeste 22 Norte 0 -- -- 49
2020-07-21 19:00:00 34.2 8 Oeste 21 Oeste 0 -- -- 40
2020-07-21 18:00:00 34.9 8 Oeste 24 Sudoeste 0 -- -- 33
2020-07-21 17:00:00 34.3 7 Norte 21 Este 0 -- -- 36
2020-07-21 16:00:00 33.7 9 Norte 17 Norte 0 -- -- 29
2020-07-21 15:00:00 32.5 6 Sudoeste 18 Sudoeste 0 -- -- 33
2020-07-21 14:00:00 30.1 9 Oeste 20 Oeste 0 -- -- 50
2020-07-21 13:00:00 27.7 12 Este 35 Este 0 -- -- 53
2020-07-21 12:00:00 24.1 20 Este 44 Este 0 -- -- 62
2020-07-21 11:00:00 20.9 25 Este 49 Este 0 -- -- 71
2020-07-21 10:00:00 20 24 Este 44 Este 0 -- -- 74
2020-07-21 09:00:00 19.1 16 Este 36 Este 0 -- -- 76
2020-07-21 08:00:00 17.6 21 Este 48 Este 0 -- -- 82
2020-07-21 07:00:00 17 30 Este 54 Este 0 -- -- 83
2020-07-21 06:00:00 17.6 28 Este 59 Este 0 -- -- 81
2020-07-21 05:00:00 18.3 24 Este 43 Este 0 -- -- 78
2020-07-21 04:00:00 18.6 24 Este 45 Este 0 -- -- 76
2020-07-21 03:00:00 18.8 25 Este 44 Este 0 -- -- 75
2020-07-21 02:00:00 19.3 23 Este 43 Este 0 -- -- 72
2020-07-21 01:00:00 19.9 26 Este 41 Este 0 -- -- 69
2020-07-21 00:00:00 19.8 8 Nordeste 24 Este 0 -- -- 70
2020-07-20 23:00:00 20.5 11 Nordeste 27 Este 0 -- -- 69
2020-07-20 22:00:00 22.2 8 Nordeste 24 Nordeste 0 -- -- 67
2020-07-20 21:00:00 25.9 7 Nordeste 24 Noroeste 0 -- -- 58
2020-07-20 20:00:00 28 9 Norte 21 Norte 0 -- -- 52
2020-07-20 19:00:00 29.3 7 Norte 24 Noroeste 0 -- -- 50
2020-07-20 18:00:00 30.1 13 Noroeste 24 Noroeste 0 -- -- 51
2020-07-20 17:00:00 30.6 15 Noroeste 24 Oeste 0 -- -- 48
2020-07-20 16:00:00 30.9 9 Oeste 22 Oeste 0 -- -- 45
2020-07-20 15:00:00 30.1 10 Oeste 20 Oeste 0 -- -- 47
2020-07-20 14:00:00 28.9 3 Sudoeste 19 Este 0 -- -- 44
2020-07-20 13:00:00 26.5 11 Este 31 Este 0 -- -- 53
2020-07-20 12:00:00 23.4 18 Este 36 Este 0 -- -- 63
2020-07-20 11:00:00 21.2 19 Este 38 Este 0 -- -- 69
2020-07-20 10:00:00 19.8 21 Este 42 Este 0 -- -- 73
2020-07-20 09:00:00 18.9 26 Este 44 Este 0 -- -- 76
2020-07-20 08:00:00 17.9 25 Este 45 Este 0 -- -- 82
2020-07-20 07:00:00 17.3 21 Este 43 Este 0 -- -- 86
2020-07-20 06:00:00 17.2 22 Este 37 Este 0 -- -- 88
2020-07-20 05:00:00 15.9 6 Nordeste 24 Este 0 -- -- 91
2020-07-20 04:00:00 15.9 5 Norte 11 Nordeste 0 -- -- 88
2020-07-20 03:00:00 16.7 5 Nordeste 14 Nordeste 0 -- -- 87
2020-07-20 02:00:00 17.2 6 Norte 15 Nordeste 0 -- -- 88
2020-07-20 01:00:00 17.9 4 Norte 10 Norte 0 -- -- 85
2020-07-20 00:00:00 18.8 5 Nordeste 10 Este 0 -- -- 88
2020-07-19 23:00:00 19.5 2 Sur 5 Sudoeste 0 -- -- 85
2020-07-19 22:00:00 21.9 2 Sudeste 9 Sudoeste 0 -- -- 77
2020-07-19 21:00:00 24.8 5 Sur 12 Sudoeste 0 -- -- 67
2020-07-19 20:00:00 25.9 7 Sudoeste 18 Sudoeste 0 -- -- 63
2020-07-19 19:00:00 26.1 11 Sudoeste 21 Sudoeste 0 -- -- 61
2020-07-19 18:00:00 27.6 12 Sudoeste 18 Oeste 0 -- -- 57
2020-07-19 17:00:00 27.8 9 Oeste 17 Oeste 0 -- -- 57
2020-07-19 16:00:00 27.9 9 Oeste 17 Noroeste 0 -- -- 57
2020-07-19 15:00:00 27.7 8 Oeste 24 Sudoeste 0 -- -- 57
2020-07-19 14:00:00 27.8 10 Sudoeste 22 Sudoeste 0 -- -- 54
2020-07-19 13:00:00 26.2 12 Sudoeste 19 Sudoeste 0 -- -- 56
2020-07-19 12:00:00 26.1 9 Sudoeste 15 Sudoeste 0 -- -- 51
2020-07-19 11:00:00 24.4 7 Sudoeste 11 Sudoeste 0 -- -- 55
2020-07-19 10:00:00 21.3 0 Calma 4 Noroeste 0 -- -- 62
2020-07-19 09:00:00 15.8 0 Calma 7 Noroeste 0 -- -- 79
2020-07-19 08:00:00 12.4 4 Noroeste 8 Noroeste 0 -- -- 89
2020-07-19 07:00:00 12 4 Noroeste 9 Nordeste 0 -- -- 89
2020-07-19 06:00:00 12.6 5 Norte 10 Este 0 -- -- 87
2020-07-19 05:00:00 13.3 4 Norte 10 Nordeste 0 -- -- 86
2020-07-19 04:00:00 13.7 3 Norte 8 Noroeste 0 -- -- 86
2020-07-19 03:00:00 14.5 2 Noroeste 9 Nordeste 0 -- -- 84
2020-07-19 02:00:00 15.4 4 Noroeste 10 Noroeste 0 -- -- 83
2020-07-19 01:00:00 17 5 Norte 8 Nordeste 0 -- -- 78
2020-07-19 00:00:00 18.9 4 Norte 13 Este 0 -- -- 72
2020-07-18 23:00:00 21.1 3 Noroeste 4 Norte 0 -- -- 68
2020-07-18 22:00:00 26.3 0 Calma 11 Noroeste 0 -- -- 50
2020-07-18 21:00:00 30.4 8 Noroeste 12 Noroeste 0 -- -- 33
2020-07-18 20:00:00 32 8 Noroeste 16 Noroeste 0 -- -- 29
2020-07-18 19:00:00 32.1 12 Noroeste 22 Noroeste 0 -- -- 27
2020-07-18 18:00:00 33 14 Noroeste 26 Noroeste 0 -- -- 30
2020-07-18 17:00:00 34.4 15 Noroeste 25 Noroeste 0 -- -- 26
2020-07-18 16:00:00 35 7 Sudoeste 21 Noroeste 0 -- -- 25
2020-07-18 15:00:00 34.5 8 Oeste 19 Noroeste 0 -- -- 24
2020-07-18 14:00:00 33.6 9 Oeste 19 Oeste 0 -- -- 25
2020-07-18 13:00:00 33.2 9 Sudoeste 17 Sudoeste 0 -- -- 28
2020-07-18 12:00:00 30.8 9 Este 23 Este 0 -- -- 35
2020-07-18 11:00:00 28 16 Este 31 Este 0 -- -- 37
2020-07-18 10:00:00 26.3 17 Este 33 Este 0 -- -- 38
2020-07-18 09:00:00 24.9 18 Este 36 Este 0 -- -- 39
2020-07-18 08:00:00 23.7 22 Este 41 Este 0 -- -- 42
2020-07-18 07:00:00 23.7 24 Este 41 Este 0 -- -- 46
2020-07-18 06:00:00 24.5 23 Este 41 Este 0 -- -- 42
2020-07-18 05:00:00 25.2 21 Este 35 Este 0 -- -- 44
2020-07-18 04:00:00 24.4 8 Nordeste 30 Este -- -- -- 49
2020-07-18 03:00:00 20.2 7 Norte 18 Este 0 -- -- 59
2020-07-18 02:00:00 21.3 7 Nordeste 20 Este 0 -- -- 53
2020-07-18 01:00:00 21.2 6 Nordeste 21 Este 0 -- -- 55
2020-07-18 00:00:00 22.4 8 Nordeste 19 Nordeste 0 -- -- 54
2020-07-17 23:00:00 24.7 8 Nordeste 22 Este 0 -- -- 48
2020-07-17 22:00:00 27.5 9 Este 19 Este 0 -- -- 45
2020-07-17 21:00:00 31.7 6 Norte 22 Noroeste 0 -- -- 36
2020-07-17 20:00:00 33.4 13 Noroeste 22 Noroeste 0 -- -- 33
2020-07-17 19:00:00 35.3 4 Este 16 Este 0 -- -- 20
2020-07-17 18:00:00 34.9 6 Este 19 Sudeste 0 -- -- 21
2020-07-17 17:00:00 34.8 4 Sur 19 Este 0 -- -- 23
2020-07-17 16:00:00 34 8 Este 24 Este 0 -- -- 29
2020-07-17 15:00:00 33 10 Este 19 Este 0 -- -- 31
2020-07-17 14:00:00 31.6 8 Nordeste 30 Este 0 -- -- 34
2020-07-17 13:00:00 29.8 12 Sudeste 35 Este 0 -- -- 35
2020-07-17 12:00:00 28.3 13 Sudeste 39 Este 0 -- -- 39
2020-07-17 11:00:00 26.5 19 Este 37 Este 0 -- -- 40
2020-07-17 10:00:00 23.9 18 Este 44 Este 0 -- -- 58
2020-07-17 09:00:00 23.5 24 Este 45 Este 0 -- -- 47
2020-07-17 08:00:00 22.1 24 Este 42 Este 0 -- -- 52
2020-07-17 07:00:00 22 25 Este 46 Este 0 -- -- 54
2020-07-17 06:00:00 22 27 Este 49 Este 0 -- -- 56
2020-07-17 05:00:00 22 30 Este 46 Este 0 -- -- 57
2020-07-17 04:00:00 22 21 Este 46 Este 0 -- -- 55
2020-07-17 03:00:00 22 26 Este 48 Este 0 -- -- 56
2020-07-17 02:00:00 22.7 30 Este 46 Este 0 -- -- 53
2020-07-17 01:00:00 22.5 23 Este 40 Este 0 -- -- 53
2020-07-17 00:00:00 22.5 25 Este 41 Este 0 -- -- 53
2020-07-16 23:00:00 22.2 15 Este 31 Este 0 -- -- 55
2020-07-16 22:00:00 24.2 20 Este 29 Este 0 -- -- 50
2020-07-16 21:00:00 27.3 9 Nordeste 21 Nordeste 0 -- -- 41
2020-07-16 20:00:00 28.6 8 Nordeste 23 Nordeste 0 -- -- 35
2020-07-16 19:00:00 31 10 Este 21 Este 0 -- -- 33
2020-07-16 18:00:00 32.2 6 Nordeste 21 Nordeste 0 -- -- 32
2020-07-16 17:00:00 32.1 10 Nordeste 25 Norte 0 -- -- 38
2020-07-16 16:00:00 31.8 8 Este 21 Sudeste 0 -- -- 39
2020-07-16 15:00:00 30.2 13 Este 28 Este 0 -- -- 40
2020-07-16 14:00:00 28.9 15 Este 35 Este 0 -- -- 42
2020-07-16 13:00:00 27.7 18 Este 37 Este 0 -- -- 43
2020-07-16 12:00:00 25.9 22 Este 37 Este 0 -- -- 46
2020-07-16 11:00:00 23.8 23 Este 40 Este 0 -- -- 52
2020-07-16 10:00:00 22.3 25 Este 44 Este 0 -- -- 58
2020-07-16 09:00:00 21.3 24 Este 44 Este 0 -- -- 57
2020-07-16 08:00:00 19.6 22 Este 46 Este 0 -- -- 63
2020-07-16 07:00:00 18.9 28 Este 49 Este 0 -- -- 66
2020-07-16 06:00:00 18.2 29 Este 51 Este 0 -- -- 67
2020-07-16 05:00:00 18.3 29 Este 49 Este 0 -- -- 67
2020-07-16 04:00:00 18.3 28 Este 48 Este 0 -- -- 66
2020-07-16 03:00:00 19.3 26 Este 48 Este 0 -- -- 63
2020-07-16 02:00:00 20.5 27 Este 49 Este 0 -- -- 59
2020-07-16 01:00:00 20 26 Este 47 Este 0 -- -- 59
2020-07-16 00:00:00 19.3 22 Este 42 Este 0 -- -- 59
2020-07-15 23:00:00 20.5 15 Nordeste 34 Este 0 -- -- 54
2020-07-15 22:00:00 22.3 19 Este 36 Este 0 -- -- 48
2020-07-15 21:00:00 24.6 21 Este 35 Este 0 -- -- 40
2020-07-15 20:00:00 26.7 12 Este 31 Este 0 -- -- 37
2020-07-15 19:00:00 27.7 12 Este 24 Este 0 -- -- 39
2020-07-15 18:00:00 28.5 11 Este 25 Este 0 -- -- 39
2020-07-15 17:00:00 29.4 9 Norte 31 Este 0 -- -- 36
2020-07-15 16:00:00 28.7 12 Este 31 Este 0 -- -- 39
2020-07-15 15:00:00 28.9 12 Norte 33 Este 0 -- -- 38
2020-07-15 14:00:00 26.9 15 Este 31 Nordeste 0 -- -- 41
2020-07-15 13:00:00 25.9 17 Este 37 Este 0 -- -- 41
2020-07-15 12:00:00 23.6 8 Este 27 Este 0 -- -- 51
2020-07-15 11:00:00 21.5 13 Nordeste 42 Este 0 -- -- 58
2020-07-15 10:00:00 19.1 25 Este 54 Este 0 -- -- 64
2020-07-15 09:00:00 17.9 31 Este 61 Este 0 -- -- 67
2020-07-15 08:00:00 17.1 31 Este 51 Este 0 -- -- 69
2020-07-15 07:00:00 16.3 26 Este 56 Este 0 -- -- 74
2020-07-15 06:00:00 16.4 30 Este 60 Este 0 -- -- 74
2020-07-15 05:00:00 16.6 35 Este 63 Este 0 -- -- 73
2020-07-15 04:00:00 16.5 28 Este 58 Este 0 -- -- 70
2020-07-15 03:00:00 16.3 33 Este 67 Este 0 -- -- 72
2020-07-15 02:00:00 15.9 28 Este 59 Este 0 -- -- 72
2020-07-15 01:00:00 16.1 11 Nordeste 34 Este 0 -- -- 69
2020-07-15 00:00:00 16.4 13 Nordeste 37 Este 0 -- -- 69
2020-07-14 23:00:00 17.6 10 Este 30 Este 0 -- -- 67
2020-07-14 22:00:00 19.9 7 Este 24 Este 0 -- -- 58
2020-07-14 21:00:00 22.6 9 Norte 41 Norte 0 -- -- 51
2020-07-14 20:00:00 23.9 13 Nordeste 33 Nordeste 0 -- -- 48
2020-07-14 19:00:00 25.5 8 Nordeste 30 Norte 0 -- -- 42
2020-07-14 18:00:00 25.7 14 Norte 30 Nordeste 0 -- -- 41
2020-07-14 17:00:00 25.9 10 Norte 35 Noroeste 0 -- -- 41
2020-07-14 16:00:00 25.5 16 Norte 36 Noroeste 0 -- -- 43
2020-07-14 15:00:00 25.7 8 Nordeste 26 Norte 0 -- -- 41
2020-07-14 14:00:00 24.7 9 Nordeste 26 Norte 0 -- -- 42
2020-07-14 13:00:00 25 10 Norte 34 Este 0 -- -- 36
2020-07-14 12:00:00 23.5 8 Nordeste -- -- -- -- -- 35
2020-07-14 11:00:00 -- 18 Este 41 Este 0 -- -- --
2020-07-14 10:00:00 19.5 26 Este 39 Este 0 -- -- 48
2020-07-14 09:00:00 19 8 Nordeste 32 Nordeste 0 -- -- 47
2020-07-14 08:00:00 16.4 21 Este 45 Sudeste 0 -- -- 58
2020-07-14 07:00:00 17.8 11 Nordeste 28 Este 0 -- -- 48
2020-07-14 06:00:00 18.7 11 Este 41 Nordeste 0 -- -- 39
2020-07-14 05:00:00 17.5 21 Este 51 Este 0 -- -- 51
2020-07-14 04:00:00 18.9 19 Este 37 Nordeste 0 -- -- 49
2020-07-14 03:00:00 19.2 9 Nordeste 39 Este 0 -- -- 47
2020-07-14 02:00:00 18.7 17 Este 50 Este 0 -- -- 49
2020-07-14 01:00:00 18.4 22 Este 48 Este 0 -- -- 52
2020-07-14 00:00:00 19 28 Este 50 Este 0 -- -- 49
2020-07-13 23:00:00 20.1 19 Este 41 Este 0 -- -- 47
2020-07-13 22:00:00 22.6 10 Este 29 Este 0 -- -- 43
2020-07-13 21:00:00 25.9 4 Norte 23 Noroeste 0 -- -- 40
2020-07-13 20:00:00 27.2 9 Norte 28 Norte 0 -- -- 41
2020-07-13 19:00:00 28.5 13 Norte 25 Noroeste 0 -- -- 41
2020-07-13 18:00:00 30.1 12 Norte 30 Norte 0 -- -- 43
2020-07-13 17:00:00 30.3 9 Norte 22 Este 0 -- -- 44
2020-07-13 16:00:00 30.7 9 Nordeste 22 Este 0 -- -- 48
2020-07-13 15:00:00 29.7 10 Este 27 Este 0 -- -- 48
2020-07-13 14:00:00 28.5 14 Este 30 Este 0 -- -- 50
2020-07-13 13:00:00 26.9 16 Este 30 Este 0 -- -- 56
2020-07-13 12:00:00 25.3 14 Este 35 Este 0 -- -- 60
2020-07-13 11:00:00 23.6 12 Este 43 Este 0 -- -- 64
2020-07-13 10:00:00 21.9 27 Este 52 Este 0 -- -- 68
2020-07-13 09:00:00 20.2 28 Este 50 Este 0 -- -- 73
2020-07-13 08:00:00 18.9 28 Este 49 Este 0 -- -- 77
2020-07-13 07:00:00 18.1 26 Este 46 Este 0 -- -- 78
2020-07-13 06:00:00 18.9 25 Este 45 Este 0 -- -- 75
2020-07-13 05:00:00 19.7 24 Este 43 Este 0 -- -- 72
2020-07-13 04:00:00 20.5 19 Este 44 Este 0 -- -- 70
2020-07-13 03:00:00 20.7 24 Este 41 Este 0 -- -- 69
2020-07-13 02:00:00 21.2 22 Este 42 Este 0 -- -- 66
2020-07-13 01:00:00 21.4 21 Este 39 Este 0 -- -- 67
2020-07-13 00:00:00 21.8 15 Este 32 Este 0 -- -- 63